Time;durP1;ratioP1;P1;durP2;ratioP2;P2;SDS_P1;SDS_P2;PMS_P1;PMS_P2;Temp;Humidity;BMP_temperature;BMP_pressure;BME280_temperature;BME280_humidity;BME280_pressure;Samples;Min_cycle;Max_cycle;Signal;HPM_P1;HPM_P2
2021/10/30 00:01:24;;;;;;;16.77;11.75;;;;;;;14.10;90.72;99768.00;5077140;28;20048;-67
2021/10/30 00:03:52;;;;;;;16.10;11.32;;;;;;;14.07;90.28;99765.97;5077019;28;20052;-66
2021/10/30 00:06:19;;;;;;;20.10;11.18;;;;;;;13.92;90.69;99766.75;5076619;28;20050;-67
2021/10/30 00:08:46;;;;;;;16.70;11.98;;;;;;;13.93;91.79;99757.31;5076675;28;20057;-66
2021/10/30 00:11:14;;;;;;;16.58;10.63;;;;;;;13.99;91.31;99753.91;5076679;28;20064;-66
2021/10/30 00:13:41;;;;;;;16.55;10.65;;;;;;;14.06;91.00;99740.22;5075744;28;20057;-66
2021/10/30 00:16:09;;;;;;;13.93;10.40;;;;;;;14.00;90.75;99741.66;5058775;28;20041;-66
2021/10/30 00:18:36;;;;;;;18.98;10.75;;;;;;;14.22;89.04;99737.44;5056650;28;20566;-67
2021/10/30 00:21:03;;;;;;;16.77;11.25;;;;;;;13.88;90.78;99735.44;5055028;28;20053;-68
2021/10/30 00:23:31;;;;;;;16.88;11.43;;;;;;;13.99;91.19;99734.53;5056804;28;20040;-67
2021/10/30 00:25:58;;;;;;;16.73;11.48;;;;;;;13.99;91.25;99722.63;5056276;28;20052;-68
2021/10/30 00:28:25;;;;;;;15.38;11.05;;;;;;;14.15;89.86;99723.41;5056550;28;20060;-67
2021/10/30 00:30:53;;;;;;;16.05;11.13;;;;;;;14.02;90.62;99717.19;5055147;28;20056;-66
2021/10/30 00:33:20;;;;;;;20.90;11.40;;;;;;;13.85;91.88;99723.09;5056770;28;20053;-66
2021/10/30 00:35:47;;;;;;;18.58;11.18;;;;;;;13.87;92.30;99709.72;5056195;28;20059;-67
2021/10/30 00:38:14;;;;;;;15.75;10.27;;;;;;;14.04;91.74;99705.75;5056394;28;20041;-67
2021/10/30 00:40:42;;;;;;;15.77;10.70;;;;;;;14.14;90.78;99710.75;5075173;28;20056;-67
2021/10/30 00:43:09;;;;;;;13.88;10.23;;;;;;;14.25;90.28;99712.56;5075156;28;20056;-66
2021/10/30 00:45:37;;;;;;;16.17;10.27;;;;;;;14.00;91.10;99705.66;5076071;28;20044;-67
2021/10/30 00:48:04;;;;;;;17.13;9.40;;;;;;;14.24;90.49;99707.41;5076439;28;20063;-67
2021/10/30 00:50:32;;;;;;;16.63;9.80;;;;;;;13.93;91.29;99697.19;5075345;28;20048;-67
2021/10/30 00:53:00;;;;;;;16.10;9.32;;;;;;;14.20;90.82;99695.44;5076240;28;20052;-67
2021/10/30 00:55:29;;;;;;;14.00;9.50;;;;;;;14.13;90.84;99696.09;5074569;28;20053;-66
2021/10/30 00:57:58;;;;;;;14.80;8.82;;;;;;;14.22;90.34;99706.97;5074661;28;20055;-67
2021/10/30 01:00:26;;;;;;;14.50;8.77;;;;;;;14.08;90.83;99692.78;5075789;28;20053;-67
2021/10/30 01:02:56;;;;;;;14.13;9.23;;;;;;;13.95;91.36;99685.75;5075965;28;20804;-67
2021/10/30 01:05:24;;;;;;;17.05;9.27;;;;;;;14.08;91.56;99684.47;5075806;28;20291;-66
2021/10/30 01:07:51;;;;;;;13.20;8.57;;;;;;;14.17;90.83;99685.91;5074440;28;20063;-67
2021/10/30 01:10:19;;;;;;;12.75;8.45;;;;;;;14.27;90.69;99674.28;5075681;28;20075;-68
2021/10/30 01:12:47;;;;;;;12.05;8.80;;;;;;;14.24;90.37;99668.63;5074443;28;20617;-67
2021/10/30 01:15:14;;;;;;;12.13;8.20;;;;;;;14.28;90.44;99666.75;5048882;28;20041;-67
2021/10/30 01:17:42;;;;;;;13.05;8.38;;;;;;;14.41;89.63;99665.44;5054477;28;20155;-68
2021/10/30 01:20:23;;;;;;;13.95;8.15;;;;;;;14.51;89.19;99665.69;5055753;28;20057;-67
2021/10/30 01:22:51;;;;;;;14.10;7.78;;;;;;;14.46;88.52;99663.19;5054411;28;20052;-67
2021/10/30 01:25:21;;;;;;;12.18;8.15;;;;;;;14.16;90.42;99662.13;5055263;28;20052;-68
2021/10/30 01:27:50;;;;;;;11.80;8.13;;;;;;;14.21;90.87;99659.06;5070517;28;20057;-66
2021/10/30 01:30:20;;;;;;;13.25;7.78;;;;;;;14.11;91.18;99647.75;5056004;28;20067;-66
2021/10/30 01:33:02;;;;;;;11.85;7.72;;;;;;;13.98;92.21;99651.81;5055211;28;20060;-66
2021/10/30 01:35:43;;;;;;;12.90;8.20;;;;;;;14.28;91.37;99648.16;5054174;28;20045;-67
2021/10/30 01:38:11;;;;;;;11.65;7.50;;;;;;;14.09;91.25;99648.13;5054190;28;20056;-67
2021/10/30 01:40:47;;;;;;;11.70;7.63;;;;;;;14.00;92.44;99652.28;5072262;28;20059;-67
2021/10/30 01:43:16;;;;;;;15.75;7.60;;;;;;;13.99;92.86;99643.16;5073801;28;20048;-67
2021/10/30 01:45:45;;;;;;;13.63;7.60;;;;;;;13.89;93.50;99640.16;5075254;28;20048;-66
2021/10/30 01:48:13;;;;;;;12.13;7.32;;;;;;;14.09;92.95;99639.81;5075448;28;20056;-68
2021/10/30 01:50:45;;;;;;;13.52;7.45;;;;;;;14.25;92.38;99634.22;5057995;28;20063;-66
2021/10/30 01:53:12;;;;;;;10.95;7.50;;;;;;;13.86;93.76;99632.56;5074058;28;20056;-66
2021/10/30 01:55:40;;;;;;;9.65;6.85;;;;;;;13.93;94.63;99608.59;5073028;28;20048;-67
2021/10/30 01:58:07;;;;;;;15.63;7.57;;;;;;;14.00;94.34;99611.53;5075291;28;20045;-67
2021/10/30 02:00:35;;;;;;;10.13;6.68;;;;;;;14.10;94.32;99612.94;5074634;28;20758;-67
2021/10/30 02:03:03;;;;;;;10.00;6.93;;;;;;;14.19;93.42;99603.22;5075214;28;20048;-67
2021/10/30 02:05:31;;;;;;;11.65;7.28;;;;;;;14.09;94.12;99597.47;5075152;28;20048;-67
2021/10/30 02:08:00;;;;;;;9.63;6.55;;;;;;;14.23;93.63;99589.44;5075271;28;20048;-66
2021/10/30 02:10:27;;;;;;;10.38;6.53;;;;;;;14.31;92.97;99583.72;5074590;28;20061;-66
2021/10/30 02:12:56;;;;;;;15.43;7.15;;;;;;;14.18;93.16;99587.78;5074945;28;20102;-67
2021/10/30 02:15:23;;;;;;;10.23;7.05;;;;;;;14.34;93.14;99568.34;5075561;28;20076;-68
2021/10/30 02:17:50;;;;;;;11.05;6.70;;;;;;;14.34;92.69;99568.34;5075611;28;20522;-67
2021/10/30 02:20:19;;;;;;;11.63;6.65;;;;;;;14.35;92.97;99559.66;5073596;28;20112;-67
2021/10/30 02:22:51;;;;;;;10.50;7.03;;;;;;;14.42;92.50;99556.22;5075095;28;20052;-67
2021/10/30 02:25:21;;;;;;;9.98;7.35;;;;;;;14.22;92.96;99558.19;5073976;28;20053;-67
2021/10/30 02:27:52;;;;;;;11.85;7.07;;;;;;;14.17;94.05;99552.97;5075027;28;20056;-67
2021/10/30 02:30:20;;;;;;;10.55;6.93;;;;;;;14.30;93.56;99551.66;5074662;28;20044;-66
2021/10/30 02:32:48;;;;;;;10.77;7.35;;;;;;;14.37;93.42;99550.97;5075017;28;20048;-68
2021/10/30 02:35:16;;;;;;;10.98;8.00;;;;;;;14.36;92.93;99541.91;5074836;28;20052;-68
2021/10/30 02:37:43;;;;;;;11.10;7.72;;;;;;;14.14;93.30;99539.03;5074915;28;20059;-68
2021/10/30 02:40:13;;;;;;;16.47;8.53;;;;;;;14.30;93.61;99537.00;5058015;28;20049;-68
2021/10/30 02:42:40;;;;;;;11.90;8.90;;;;;;;14.34;92.91;99526.78;5054482;28;20053;-67
2021/10/30 02:45:08;;;;;;;10.75;8.30;;;;;;;14.31;93.08;99524.75;5055281;28;20056;-66
2021/10/30 02:47:36;;;;;;;12.50;8.85;;;;;;;14.22;93.41;99524.16;5054655;28;20049;-67
2021/10/30 02:50:03;;;;;;;12.77;8.77;;;;;;;14.24;93.01;99524.59;5054811;28;20437;-67
2021/10/30 02:52:31;;;;;;;11.60;7.78;;;;;;;14.32;93.06;99516.09;5054272;28;20057;-66
2021/10/30 02:54:58;;;;;;;11.88;8.18;;;;;;;14.19;93.76;99513.81;5054703;28;20060;-67
2021/10/30 02:57:25;;;;;;;11.93;7.93;;;;;;;14.06;94.80;99502.09;5054521;28;20044;-67
2021/10/30 02:59:54;;;;;;;10.95;8.38;;;;;;;14.37;94.00;99495.56;5054705;28;20076;-67
2021/10/30 03:02:22;;;;;;;13.80;8.80;;;;;;;14.32;93.14;99498.66;5054040;28;20171;-67
2021/10/30 03:04:49;;;;;;;13.30;8.68;;;;;;;14.16;93.65;99495.16;5054734;28;20527;-67
2021/10/30 03:07:18;;;;;;;12.40;8.82;;;;;;;14.42;93.21;99470.34;5054814;28;20103;-66
2021/10/30 03:09:49;;;;;;;12.55;8.85;;;;;;;14.39;92.38;99471.09;5054377;28;20061;-67
2021/10/30 03:12:18;;;;;;;11.75;9.10;;;;;;;14.30;92.58;99463.00;5037012;28;20053;-67
2021/10/30 03:14:46;;;;;;;11.63;7.68;;;;;;;14.47;92.14;99447.88;5058207;28;20064;-67
2021/10/30 03:17:13;;;;;;;10.20;7.57;;;;;;;14.22;91.99;99450.19;5057853;28;20049;-67
2021/10/30 03:19:41;;;;;;;14.30;7.63;;;;;;;14.44;91.95;99441.09;5058189;28;20638;-66
2021/10/30 03:22:08;;;;;;;11.93;7.50;;;;;;;14.43;90.70;99439.53;5057619;28;20068;-67
2021/10/30 03:24:36;;;;;;;11.88;7.25;;;;;;;14.44;91.18;99432.78;5040148;28;20486;-66
2021/10/30 03:27:04;;;;;;;12.85;7.10;;;;;;;14.53;90.74;99425.03;5055604;28;20056;-67
2021/10/30 03:29:32;;;;;;;13.73;8.10;;;;;;;14.67;89.86;99421.69;5057756;28;20053;-67
2021/10/30 03:31:59;;;;;;;11.68;7.10;;;;;;;14.46;89.59;99426.88;5030348;28;20049;-67
2021/10/30 03:34:26;;;;;;;12.82;7.70;;;;;;;14.63;89.14;99418.84;5037633;28;20060;-67
2021/10/30 03:36:53;;;;;;;13.32;7.05;;;;;;;14.47;89.51;99414.66;5037704;28;20045;-67
2021/10/30 03:39:20;;;;;;;13.02;7.30;;;;;;;14.38;90.22;99409.31;5053134;28;20044;-66
2021/10/30 03:41:48;;;;;;;13.13;7.75;;;;;;;14.46;89.69;99408.28;5077014;28;20150;-67
2021/10/30 03:44:15;;;;;;;13.60;7.22;;;;;;;14.16;90.78;99406.53;5077425;28;20052;-67
2021/10/30 03:46:42;;;;;;;11.40;7.78;;;;;;;14.01;92.43;99413.00;5075502;28;20059;-67
2021/10/30 03:49:10;;;;;;;11.18;7.38;;;;;;;14.01;92.53;99410.22;5077516;28;20049;-68
2021/10/30 03:51:44;;;;;;;10.05;7.32;;;;;;;14.04;92.53;99404.75;5077058;28;20067;-67
2021/10/30 03:54:11;;;;;;;13.17;8.07;;;;;;;14.08;92.42;99411.16;5075890;28;20415;-66
2021/10/30 03:56:39;;;;;;;11.05;7.53;;;;;;;14.10;92.37;99410.78;5075607;28;20310;-65
2021/10/30 03:59:06;;;;;;;10.63;7.53;;;;;;;14.31;91.12;99409.22;5077448;28;20044;-67
2021/10/30 04:01:34;;;;;;;9.82;7.25;;;;;;;14.31;90.94;99411.19;5076940;28;20055;-66
2021/10/30 04:04:01;;;;;;;10.40;7.10;;;;;;;14.16;91.02;99398.22;5075708;28;20052;-66
2021/10/30 04:06:28;;;;;;;14.07;7.35;;;;;;;14.31;90.83;99394.56;5077419;28;20060;-67
2021/10/30 04:08:56;;;;;;;8.95;6.95;;;;;;;14.33;90.04;99401.31;5076839;28;20407;-66
2021/10/30 04:11:23;;;;;;;10.68;6.85;;;;;;;14.09;90.88;99396.13;5076384;28;20431;-66
2021/10/30 04:13:51;;;;;;;10.20;6.72;;;;;;;14.05;91.52;99389.72;5075295;28;20052;-67
2021/10/30 04:16:19;;;;;;;12.77;6.82;;;;;;;14.18;91.17;99388.38;5058428;28;20064;-66
2021/10/30 04:18:46;;;;;;;11.05;7.15;;;;;;;14.23;90.85;99392.81;5076926;28;20056;-67
2021/10/30 04:21:15;;;;;;;8.93;6.38;;;;;;;14.20;90.64;99394.38;5076753;28;20412;-66
2021/10/30 04:23:42;;;;;;;10.95;6.75;;;;;;;14.03;91.29;99402.34;5076221;28;20060;-67
2021/10/30 04:26:09;;;;;;;8.43;6.20;;;;;;;14.12;91.94;99400.16;5076182;28;20075;-67
2021/10/30 04:28:37;;;;;;;11.80;6.10;;;;;;;13.85;92.02;99406.75;5076639;28;20063;-67
2021/10/30 04:31:07;;;;;;;12.27;6.20;;;;;;;13.74;93.13;99408.53;5076347;28;20056;-68
2021/10/30 04:33:35;;;;;;;11.52;6.15;;;;;;;13.70;93.65;99408.47;5075384;28;20057;-66
2021/10/30 04:36:05;;;;;;;9.25;5.97;;;;;;;13.74;93.59;99403.00;5076953;28;20079;-66
2021/10/30 04:38:32;;;;;;;8.13;5.63;;;;;;;13.76;94.29;99397.88;5074105;28;20071;-67
2021/10/30 04:40:59;;;;;;;9.18;5.60;;;;;;;13.96;92.87;99394.72;5056233;28;20068;-67
2021/10/30 04:43:27;;;;;;;10.20;5.90;;;;;;;14.04;92.76;99410.28;5056562;28;20049;-67
2021/10/30 04:45:55;;;;;;;10.27;5.97;;;;;;;13.84;92.86;99399.63;5056293;28;20056;-67
2021/10/30 04:48:22;;;;;;;9.90;5.68;;;;;;;13.76;94.18;99400.63;5055224;28;20516;-67
2021/10/30 04:50:49;;;;;;;10.32;5.75;;;;;;;13.83;94.29;99390.50;5055209;28;20049;-67
2021/10/30 04:53:16;;;;;;;10.32;5.82;;;;;;;13.69;94.83;99386.66;5056054;28;20056;-67
2021/10/30 04:55:44;;;;;;;9.73;5.38;;;;;;;13.68;95.26;99376.78;5055927;28;20057;-67
2021/10/30 04:58:11;;;;;;;9.02;5.50;;;;;;;13.61;96.07;99380.22;5056190;28;20135;-67
2021/10/30 05:00:40;;;;;;;8.13;5.18;;;;;;;13.74;95.46;99378.09;5054825;28;20488;-67
2021/10/30 05:03:08;;;;;;;10.18;5.40;;;;;;;13.63;95.74;99366.00;5055829;28;20060;-66
2021/10/30 05:05:35;;;;;;;9.75;5.80;;;;;;;13.68;96.14;99368.47;5054838;28;20056;-67
2021/10/30 05:08:03;;;;;;;11.38;5.20;;;;;;;13.75;96.07;99374.16;5056412;28;20068;-67
2021/10/30 05:10:30;;;;;;;7.75;5.20;;;;;;;13.76;95.66;99365.47;5055425;28;20064;-67
2021/10/30 05:12:58;;;;;;;7.35;5.20;;;;;;;13.66;96.24;99366.06;5055608;28;20045;-66
2021/10/30 05:15:25;;;;;;;8.93;5.38;;;;;;;13.65;96.73;99369.22;5055563;28;20059;-66
2021/10/30 05:17:52;;;;;;;7.50;4.90;;;;;;;13.89;95.78;99366.91;5054506;28;20056;-66
2021/10/30 05:20:20;;;;;;;9.63;4.80;;;;;;;13.93;95.14;99367.75;5055531;28;20060;-66
2021/10/30 05:22:47;;;;;;;7.90;4.57;;;;;;;13.89;95.03;99360.56;5037054;28;20053;-67
2021/10/30 05:25:15;;;;;;;8.15;4.90;;;;;;;14.15;93.60;99363.41;5054318;28;20044;-66
2021/10/30 05:27:42;;;;;;;8.75;4.90;;;;;;;13.84;95.06;99358.09;5054262;28;20041;-68
2021/10/30 05:30:09;;;;;;;9.90;5.63;;;;;;;13.85;95.73;99362.47;5055782;28;20064;-67
2021/10/30 05:32:37;;;;;;;7.72;4.88;;;;;;;13.94;95.16;99360.25;5049340;28;20053;-67
2021/10/30 05:35:33;;;;;;;7.53;4.13;;;;;;;13.96;95.07;99352.41;5062954;28;20064;-66
2021/10/30 05:38:27;;;;;;;7.10;4.38;;;;;;;13.98;95.02;99356.38;5054137;28;20424;-67
2021/10/30 05:40:56;;;;;;;7.00;4.57;;;;;;;13.96;95.34;99355.97;5034072;28;20076;-66
2021/10/30 05:43:24;;;;;;;8.77;4.90;;;;;;;14.26;94.32;99358.88;5033736;28;20501;-66
2021/10/30 05:45:52;;;;;;;5.80;4.07;;;;;;;14.25;93.26;99354.47;5035244;28;20065;-67
2021/10/30 05:48:19;;;;;;;10.43;4.97;;;;;;;14.01;94.11;99357.63;5036133;28;20049;-67
2021/10/30 05:50:47;;;;;;;7.20;4.65;;;;;;;13.96;95.36;99357.94;5038141;28;20061;-66
2021/10/30 05:53:14;;;;;;;11.45;5.53;;;;;;;13.78;96.83;99357.59;5034846;28;20095;-66
2021/10/30 05:55:41;;;;;;;9.68;4.72;;;;;;;13.86;96.77;99351.03;5033908;28;20049;-66
2021/10/30 05:58:09;;;;;;;9.07;4.65;;;;;;;14.09;95.69;99349.06;5035896;28;20060;-67
2021/10/30 06:00:36;;;;;;;13.63;4.55;;;;;;;14.17;94.99;99344.44;5033768;28;20056;-67
2021/10/30 06:03:03;;;;;;;6.65;4.15;;;;;;;14.27;94.23;99349.38;5033330;28;20438;-66
2021/10/30 06:05:30;;;;;;;6.70;4.30;;;;;;;14.12;94.91;99347.53;5035061;28;20057;-66
2021/10/30 06:07:58;;;;;;;9.45;4.85;;;;;;;14.00;95.77;99351.28;5060844;28;20044;-67
2021/10/30 06:10:26;;;;;;;10.00;4.22;;;;;;;14.31;94.97;99347.50;5057135;28;20072;-66
2021/10/30 06:12:53;;;;;;;9.68;4.32;;;;;;;14.53;93.25;99347.44;5063073;28;20376;-66
2021/10/30 06:15:21;;;;;;;6.68;4.03;;;;;;;14.36;93.95;99352.72;5055517;28;20646;-67
2021/10/30 06:17:48;;;;;;;9.45;4.32;;;;;;;14.51;93.64;99360.06;5063820;28;20037;-67
2021/10/30 06:20:15;;;;;;;10.55;4.47;;;;;;;14.64;93.01;99353.94;5054727;28;20049;-67
2021/10/30 06:22:43;;;;;;;9.40;4.32;;;;;;;14.82;92.54;99347.88;5069734;28;20072;-66
2021/10/30 06:25:12;;;;;;;9.82;4.88;;;;;;;14.78;93.00;99349.78;5060964;28;20048;-70
2021/10/30 06:27:40;;;;;;;8.57;4.18;;;;;;;14.68;93.49;99347.66;5040471;28;20049;-67
2021/10/30 06:30:12;;;;;;;8.23;4.45;;;;;;;14.71;93.98;99344.94;5068501;28;20052;-67
2021/10/30 06:32:40;;;;;;;8.82;4.50;;;;;;;14.55;94.70;99353.41;5033267;28;20053;-66
2021/10/30 06:35:09;;;;;;;8.30;4.50;;;;;;;14.78;93.37;99350.59;5066628;28;20053;-66
2021/10/30 06:37:39;;;;;;;10.57;4.53;;;;;;;14.66;93.50;99348.03;5071308;28;20044;-69
2021/10/30 06:40:13;;;;;;;9.40;4.72;;;;;;;14.49;95.04;99356.84;5058112;28;20053;-70
2021/10/30 06:42:41;;;;;;;9.65;4.57;;;;;;;14.40;95.99;99348.03;5033682;28;20068;-66
2021/10/30 06:45:10;;;;;;;9.75;4.57;;;;;;;14.49;95.02;99357.66;5062298;28;20533;-67
2021/10/30 06:47:37;;;;;;;8.07;4.78;;;;;;;14.46;95.22;99350.13;5057858;28;20052;-67
2021/10/30 06:50:07;;;;;;;9.15;4.25;;;;;;;14.50;95.49;99355.72;5060781;28;20064;-67
2021/10/30 06:52:38;;;;;;;7.68;4.80;;;;;;;14.69;94.43;99344.50;5078315;28;20407;-67
2021/10/30 06:55:08;;;;;;;5.95;4.00;;;;;;;14.68;93.42;99351.22;5073099;28;20404;-69
2021/10/30 06:57:36;;;;;;;7.35;3.60;;;;;;;14.79;92.86;99349.41;5058457;28;20064;-67
2021/10/30 07:00:06;;;;;;;8.32;3.70;;;;;;;14.89;92.28;99345.19;5063984;28;20053;-68
2021/10/30 07:02:34;;;;;;;7.32;4.25;;;;;;;14.88;92.44;99347.16;5066025;28;20045;-67
2021/10/30 07:05:07;;;;;;;7.78;4.97;;;;;;;14.94;91.66;99336.56;5058859;28;20068;-68
2021/10/30 07:07:35;;;;;;;11.15;4.45;;;;;;;14.62;92.42;99330.56;5054795;28;20052;-68
2021/10/30 07:10:04;;;;;;;8.10;4.40;;;;;;;14.61;92.14;99334.47;5040120;28;20049;-67
2021/10/30 07:12:35;;;;;;;9.32;4.28;;;;;;;14.41;93.88;99339.34;5057608;28;20057;-67
2021/10/30 07:15:09;;;;;;;7.97;3.75;;;;;;;14.37;94.64;99337.69;5057227;28;20048;-69
2021/10/30 07:17:39;;;;;;;8.48;4.00;;;;;;;14.32;95.33;99338.00;5052449;28;20046;-70
2021/10/30 07:20:08;;;;;;;7.05;3.55;;;;;;;14.64;93.89;99340.06;5050323;28;20669;-70
2021/10/30 07:22:41;;;;;;;6.68;3.75;;;;;;;14.89;92.50;99329.34;5057401;28;20536;-67
2021/10/30 07:25:08;;;;;;;8.07;3.78;;;;;;;14.52;92.67;99336.75;5050010;28;20049;-67
2021/10/30 07:27:36;;;;;;;8.57;3.85;;;;;;;14.60;92.99;99338.44;5045150;28;20053;-66
2021/10/30 07:30:05;;;;;;;9.95;4.70;;;;;;;14.70;92.28;99339.78;5057901;28;20482;-68
2021/10/30 07:32:33;;;;;;;9.98;5.13;;;;;;;14.85;92.07;99349.88;5065671;28;20044;-68
2021/10/30 07:35:02;;;;;;;9.30;4.28;;;;;;;14.89;90.74;99337.66;5064717;28;20056;-67
2021/10/30 07:37:30;;;;;;;6.45;3.40;;;;;;;14.74;91.76;99329.53;5062942;28;20049;-70
2021/10/30 07:39:58;;;;;;;12.02;7.00;;;;;;;14.78;91.35;99345.03;5056833;28;20483;-69
2021/10/30 07:42:26;;;;;;;7.47;3.90;;;;;;;14.77;91.05;99348.19;5056882;28;20045;-70
2021/10/30 07:44:53;;;;;;;7.50;3.63;;;;;;;14.62;90.65;99341.63;5056729;28;20507;-69
2021/10/30 07:47:21;;;;;;;6.22;3.47;;;;;;;14.57;91.78;99353.03;5057431;28;20063;-71
2021/10/30 07:49:49;;;;;;;7.03;4.22;;;;;;;14.62;92.23;99353.53;5051583;28;20048;-70
2021/10/30 07:52:16;;;;;;;12.63;3.40;;;;;;;14.72;91.53;99356.81;5057366;28;20076;-70
2021/10/30 07:54:44;;;;;;;7.72;3.60;;;;;;;14.91;91.03;99370.56;5054255;28;20045;-69
2021/10/30 07:57:12;;;;;;;6.88;3.08;;;;;;;14.92;90.91;99364.66;5049881;28;20056;-71
2021/10/30 07:59:39;;;;;;;9.02;3.97;;;;;;;15.37;88.45;99364.47;5056115;28;20041;-71
2021/10/30 08:02:07;;;;;;;8.38;3.63;;;;;;;15.23;89.21;99374.56;5054485;28;20065;-63
2021/10/30 08:04:36;;;;;;;6.50;3.28;;;;;;;15.30;88.48;99382.97;5059631;28;20071;-65
2021/10/30 08:07:04;;;;;;;5.78;2.78;;;;;;;16.80;83.47;99380.97;5054833;28;20057;-47
2021/10/30 08:09:32;;;;;;;10.10;5.20;;;;;;;16.09;83.34;99372.41;5054967;28;20053;-63
2021/10/30 08:11:59;;;;;;;6.80;3.67;;;;;;;16.04;83.02;99378.31;5053150;28;20045;-63
2021/10/30 08:14:26;;;;;;;6.40;3.10;;;;;;;16.17;83.08;99387.94;5054802;28;20048;-64
2021/10/30 08:16:54;;;;;;;8.18;3.47;;;;;;;16.17;82.35;99387.94;5057968;28;20076;-63
2021/10/30 08:19:21;;;;;;;5.50;3.20;;;;;;;16.24;82.27;99385.22;5067689;28;20053;-62
2021/10/30 08:21:49;;;;;;;9.77;3.40;;;;;;;16.28;81.71;99384.09;5056325;28;20041;-64
2021/10/30 08:24:16;;;;;;;7.20;3.15;;;;;;;16.22;82.03;99382.03;5056677;28;20048;-64
2021/10/30 08:26:43;;;;;;;4.75;2.70;;;;;;;16.25;82.15;99384.06;5056055;28;20037;-63
2021/10/30 08:29:11;;;;;;;5.38;2.85;;;;;;;16.15;82.07;99387.53;5039857;28;20041;-62
2021/10/30 08:31:38;;;;;;;10.00;3.05;;;;;;;16.17;82.25;99387.94;5058092;28;20476;-64
2021/10/30 08:34:05;;;;;;;7.97;3.10;;;;;;;16.07;83.45;99386.69;5055747;28;20136;-66
2021/10/30 08:36:33;;;;;;;7.20;2.92;;;;;;;16.39;82.63;99384.97;5056387;28;20861;-62
2021/10/30 08:39:00;;;;;;;6.18;3.00;;;;;;;16.05;83.52;99394.59;5054056;28;20048;-63
2021/10/30 08:41:28;;;;;;;6.15;2.97;;;;;;;16.44;82.69;99386.63;5053204;28;20059;-64
2021/10/30 08:43:56;;;;;;;4.68;2.50;;;;;;;16.61;81.14;99394.31;5055232;28;20077;-64
2021/10/30 08:46:23;;;;;;;7.93;3.15;;;;;;;16.62;81.50;99395.91;5055323;28;20051;-64
2021/10/30 08:48:51;;;;;;;11.13;7.45;;;;;;;16.73;81.21;99385.69;5050729;28;20390;-64
2021/10/30 08:51:19;;;;;;;4.82;2.90;;;;;;;16.59;81.05;99389.16;5058231;28;20045;-65
2021/10/30 08:53:46;;;;;;;8.50;2.58;;;;;;;16.47;81.92;99385.88;5058365;28;20053;-63
2021/10/30 08:56:13;;;;;;;6.43;3.90;;;;;;;16.52;81.76;99391.06;5060638;28;20064;-64
2021/10/30 08:58:41;;;;;;;5.63;2.90;;;;;;;16.45;81.98;99390.97;5052520;28;20409;-64
2021/10/30 09:01:10;;;;;;;5.78;2.90;;;;;;;16.67;81.22;99384.44;5054701;28;20049;-64
2021/10/30 09:03:38;;;;;;;6.68;3.40;;;;;;;16.76;80.80;99393.25;5052095;28;20048;-69
2021/10/30 09:06:06;;;;;;;5.13;2.50;;;;;;;16.76;80.35;99391.25;5052917;28;20052;-66
2021/10/30 09:08:34;;;;;;;6.45;2.78;;;;;;;16.79;80.23;99389.66;5054653;28;20045;-66
2021/10/30 09:11:08;;;;;;;15.13;7.30;;;;;;;17.07;79.51;99386.31;5053951;28;20052;-66
2021/10/30 09:13:37;;;;;;;8.82;5.28;;;;;;;17.01;79.59;99385.06;5037123;28;20057;-67
2021/10/30 09:16:04;;;;;;;10.25;5.72;;;;;;;17.01;79.19;99383.09;5063970;28;20143;-66
2021/10/30 09:18:37;;;;;;;9.52;7.25;;;;;;;16.97;80.09;99382.25;5075472;28;20048;-67
2021/10/30 09:21:04;;;;;;;5.15;3.10;;;;;;;16.63;81.75;99387.19;5054354;28;20048;-66
2021/10/30 09:23:36;;;;;;;7.18;3.20;;;;;;;16.60;82.77;99392.72;5035351;28;20056;-70
2021/10/30 09:26:07;;;;;;;10.10;6.40;;;;;;;16.66;82.62;99393.97;5053211;28;20048;-65
2021/10/30 09:28:50;;;;;;;6.85;3.50;;;;;;;16.52;83.49;99397.44;5062534;28;20060;-66
2021/10/30 09:31:18;;;;;;;5.82;3.10;;;;;;;16.68;82.84;99399.94;5054848;28;20053;-67
2021/10/30 09:33:58;;;;;;;6.03;3.13;;;;;;;16.75;82.41;99402.78;5052531;28;20045;-66
2021/10/30 09:36:40;;;;;;;8.88;3.00;;;;;;;16.73;82.88;99405.13;5048208;28;20057;-66
2021/10/30 09:39:13;;;;;;;7.00;3.33;;;;;;;16.78;82.64;99400.03;5059612;28;20040;-66
2021/10/30 09:41:45;;;;;;;6.38;3.70;;;;;;;16.87;82.21;99399.69;5070234;28;20151;-66
2021/10/30 09:44:14;;;;;;;8.77;3.97;;;;;;;16.40;84.25;99397.69;5053579;28;20053;-67
2021/10/30 09:46:44;;;;;;;5.82;3.80;;;;;;;16.46;85.18;99410.09;5054619;28;20052;-67
2021/10/30 09:49:12;;;;;;;;;;;;;;;16.61;84.12;99392.34;5054606;28;20052;-65
2021/10/30 09:51:41;;;;;;;5.28;2.90;;;;;;;16.83;82.44;99404.41;5072190;28;19928;-67
2021/10/30 09:54:08;;;;;;;6.32;2.88;;;;;;;16.79;82.80;99403.56;5061423;28;20053;-65
2021/10/30 09:56:39;;;;;;;5.97;2.63;;;;;;;16.84;82.73;99404.03;5052477;28;20049;-65
2021/10/30 09:59:08;;;;;;;4.20;2.80;;;;;;;16.72;83.31;99409.09;5052477;28;20053;-65
2021/10/30 10:01:36;;;;;;;6.10;3.10;;;;;;;16.62;83.98;99407.03;5047944;28;20496;-72
2021/10/30 10:04:04;;;;;;;9.13;2.63;;;;;;;16.18;85.34;99417.34;5053409;28;20057;-65
2021/10/30 10:06:33;;;;;;;6.78;3.20;;;;;;;16.24;85.43;99410.25;5051240;28;20047;-65
2021/10/30 10:09:02;;;;;;;8.90;2.80;;;;;;;16.32;85.86;99420.25;5054663;28;20056;-65
2021/10/30 10:11:30;;;;;;;9.85;2.58;;;;;;;16.58;84.83;99418.13;5052806;28;23059;-66
2021/10/30 10:13:57;;;;;;;4.80;2.58;;;;;;;16.74;83.85;99415.88;5042984;28;20049;-66
2021/10/30 10:16:26;;;;;;;6.13;3.65;;;;;;;16.89;82.74;99417.56;5052722;28;20420;-65
2021/10/30 10:18:58;;;;;;;9.10;3.58;;;;;;;16.97;82.14;99421.19;5053363;28;20067;-66
2021/10/30 10:21:29;;;;;;;7.75;4.05;;;;;;;16.99;81.83;99420.81;5044946;28;20423;-67
2021/10/30 10:23:58;;;;;;;5.43;2.92;;;;;;;17.08;81.42;99422.06;5044964;28;20049;-69
2021/10/30 10:26:33;;;;;;;6.35;2.90;;;;;;;17.01;81.63;99421.22;5055388;28;20049;-67
2021/10/30 10:29:03;;;;;;;4.47;2.70;;;;;;;17.09;81.20;99423.66;5040510;28;20045;-66
2021/10/30 10:31:31;;;;;;;8.85;2.38;;;;;;;17.24;81.11;99417.00;5039353;28;20053;-66
2021/10/30 10:34:17;;;;;;;7.13;2.80;;;;;;;16.99;81.63;99421.63;5020910;28;20053;-66
2021/10/30 10:36:46;;;;;;;7.88;2.70;;;;;;;17.11;81.47;99426.84;5037156;28;20057;-66
2021/10/30 10:39:19;;;;;;;5.53;2.72;;;;;;;17.26;80.24;99417.41;5058486;28;20045;-68
2021/10/30 10:41:51;;;;;;;5.65;2.90;;;;;;;17.37;79.83;99426.59;5077075;28;20045;-66
2021/10/30 10:44:27;;;;;;;4.50;2.50;;;;;;;17.38;79.63;99422.63;5071322;28;20056;-66
2021/10/30 10:46:57;;;;;;;5.03;2.90;;;;;;;17.43;79.64;99427.84;5057964;28;20048;-67
2021/10/30 10:52:10;;;;;;;6.45;2.88;;;;;;;17.17;80.54;99424.50;5057995;28;20059;-67
2021/10/30 10:54:53;;;;;;;4.40;2.35;;;;;;;17.42;79.96;99422.66;5077550;28;20059;-67
2021/10/30 10:57:21;;;;;;;5.95;3.10;;;;;;;17.30;79.85;99426.56;5061141;28;20587;-67
2021/10/30 11:00:04;;;;;;;6.47;2.80;;;;;;;17.37;80.32;99428.59;5040135;28;20052;-67
2021/10/30 11:02:54;;;;;;;5.55;2.58;;;;;;;17.40;80.19;99425.03;5058272;28;20057;-65
2021/10/30 11:05:21;;;;;;;12.85;5.85;;;;;;;17.28;80.65;99419.78;5056026;28;20061;-64
2021/10/30 11:08:08;;;;;;;7.40;3.38;;;;;;;17.40;80.74;99411.91;5051226;28;20069;-66
2021/10/30 11:10:39;;;;;;;5.13;2.60;;;;;;;17.41;80.21;99415.50;5035751;28;20061;-66
2021/10/30 11:13:09;;;;;;;5.05;2.67;;;;;;;17.35;81.15;99417.84;5040458;28;20115;-64
2021/10/30 11:15:44;;;;;;;5.03;2.55;;;;;;;17.45;80.78;99413.53;5061237;28;20053;-65
2021/10/30 11:18:26;;;;;;;7.38;4.25;;;;;;;17.38;81.27;99422.63;5020859;28;20064;-66
2021/10/30 11:21:13;;;;;;;6.40;3.08;;;;;;;17.29;81.55;99411.06;5056486;28;20045;-66
2021/10/30 11:23:43;;;;;;;3.67;2.40;;;;;;;17.46;80.92;99413.16;5056785;28;20432;-65
2021/10/30 11:26:16;;;;;;;3.90;2.50;;;;;;;17.53;80.49;99417.97;5057676;28;20053;-65
2021/10/30 11:28:43;;;;;;;7.10;3.30;;;;;;;17.60;80.45;99409.66;5057825;28;20049;-66
2021/10/30 11:31:11;;;;;;;6.32;4.05;;;;;;;17.36;81.17;99416.69;5057762;28;20049;-65
2021/10/30 11:33:39;;;;;;;6.22;2.75;;;;;;;17.54;81.15;99419.56;5055897;28;20049;-65
2021/10/30 11:36:15;;;;;;;4.68;2.55;;;;;;;17.50;81.20;99414.00;5023181;28;20056;-65
2021/10/30 11:38:45;;;;;;;3.25;2.15;;;;;;;17.67;80.28;99416.03;5075363;28;20446;-65
2021/10/30 11:41:15;;;;;;;;;;;;;;;17.79;79.64;99415.69;5077863;28;20059;-66